createdAt,value
2018-10-03T00:00:01.728Z,12.10
2018-10-03T00:02:30.172Z,13.20
2018-10-03T00:04:58.617Z,13.47
2018-10-03T00:07:27.012Z,12.13
2018-10-03T00:09:55.523Z,12.00
2018-10-03T00:12:24.054Z,13.30
2018-10-03T00:14:52.401Z,12.60
2018-10-03T00:17:20.832Z,13.60
2018-10-03T00:19:49.267Z,13.37
2018-10-03T00:22:17.719Z,14.00
2018-10-03T00:24:46.124Z,13.77
2018-10-03T00:27:14.560Z,12.40
2018-10-03T00:29:43.003Z,12.57
2018-10-03T00:32:11.508Z,11.90
2018-10-03T00:34:40.055Z,11.27
2018-10-03T00:37:08.611Z,12.67
2018-10-03T00:39:37.233Z,12.50
2018-10-03T00:42:06.369Z,14.00
2018-10-03T00:44:36.832Z,14.27
2018-10-03T00:47:05.252Z,14.27
2018-10-03T00:49:34.243Z,13.67
2018-10-03T00:52:02.668Z,13.30
2018-10-03T00:54:31.105Z,13.23
2018-10-03T00:56:59.552Z,13.27
2018-10-03T00:59:28.047Z,13.73
2018-10-03T01:01:56.475Z,13.63
2018-10-03T01:04:24.859Z,12.40
2018-10-03T01:06:53.245Z,14.17
2018-10-03T01:09:21.749Z,12.70
2018-10-03T01:11:50.183Z,11.53
2018-10-03T01:14:18.630Z,13.43
2018-10-03T01:16:47.042Z,10.60
2018-10-03T01:19:15.545Z,12.83
2018-10-03T01:21:44.042Z,12.07
2018-10-03T01:24:12.437Z,12.57
2018-10-03T01:26:40.823Z,12.50
2018-10-03T01:29:09.192Z,13.23
2018-10-03T01:31:37.620Z,12.47
2018-10-03T01:34:05.992Z,12.20
2018-10-03T01:36:34.385Z,12.40
2018-10-03T01:39:02.768Z,13.30
2018-10-03T01:41:31.113Z,12.33
2018-10-03T01:43:59.545Z,11.63
2018-10-03T01:46:27.969Z,10.63
2018-10-03T01:48:56.359Z,9.47
2018-10-03T01:51:24.739Z,8.20
2018-10-03T01:53:53.093Z,7.77
2018-10-03T01:56:21.451Z,7.13
2018-10-03T01:58:49.811Z,7.43
2018-10-03T02:01:18.219Z,5.90
2018-10-03T02:03:46.582Z,7.13
2018-10-03T02:06:15.005Z,7.03
2018-10-03T02:08:43.431Z,6.23
2018-10-03T02:11:11.903Z,7.43
2018-10-03T02:13:40.299Z,7.27
2018-10-03T02:16:08.779Z,5.97
2018-10-03T02:18:37.213Z,5.80
2018-10-03T02:21:05.664Z,6.90
2018-10-03T02:23:34.091Z,7.10
2018-10-03T02:26:02.502Z,6.17
2018-10-03T02:28:31.980Z,8.90
2018-10-03T02:31:00.377Z,8.90
2018-10-03T02:33:28.828Z,7.90
2018-10-03T02:35:57.267Z,7.10
2018-10-03T02:38:25.680Z,7.30
2018-10-03T02:40:54.060Z,8.23
2018-10-03T02:43:22.497Z,7.20
2018-10-03T02:45:50.920Z,7.50
2018-10-03T02:48:19.328Z,7.80
2018-10-03T02:50:47.745Z,7.67
2018-10-03T02:53:16.175Z,8.40
2018-10-03T02:55:44.575Z,7.40
2018-10-03T02:58:12.985Z,7.13
2018-10-03T03:00:41.453Z,6.80
2018-10-03T03:03:09.962Z,6.80
2018-10-03T03:05:38.512Z,5.90
2018-10-03T03:08:06.940Z,6.87
2018-10-03T03:10:35.459Z,6.40
2018-10-03T03:13:03.907Z,6.73
2018-10-03T03:15:32.324Z,6.70
2018-10-03T03:18:00.774Z,6.47
2018-10-03T03:20:29.179Z,6.60
2018-10-03T03:22:57.603Z,6.30
2018-10-03T03:25:26.110Z,6.80
2018-10-03T03:27:55.493Z,6.37
2018-10-03T03:30:23.936Z,5.50
2018-10-03T03:32:52.353Z,7.03
2018-10-03T03:35:20.819Z,6.73
2018-10-03T03:37:49.232Z,6.60
2018-10-03T03:40:17.692Z,7.00
2018-10-03T03:42:46.104Z,5.90
2018-10-03T03:45:14.495Z,5.57
2018-10-03T03:47:42.914Z,5.70
2018-10-03T03:50:11.324Z,6.10
2018-10-03T03:52:39.739Z,5.80
2018-10-03T03:55:08.168Z,6.60
2018-10-03T03:57:36.660Z,5.70
2018-10-03T04:00:05.120Z,4.97
2018-10-03T04:02:33.554Z,6.20
2018-10-03T04:05:01.965Z,5.83
2018-10-03T04:07:30.353Z,5.10
2018-10-03T04:09:58.776Z,4.93
2018-10-03T04:12:27.247Z,5.30
2018-10-03T04:14:55.659Z,5.23
2018-10-03T04:17:24.145Z,5.57
2018-10-03T04:19:52.520Z,6.13
2018-10-03T04:22:20.935Z,5.40
2018-10-03T04:24:49.283Z,5.97
2018-10-03T04:27:17.647Z,5.93
2018-10-03T04:29:46.013Z,6.33
2018-10-03T04:32:14.373Z,5.40
2018-10-03T04:34:42.755Z,6.00
2018-10-03T04:37:11.111Z,6.47
2018-10-03T04:39:39.520Z,6.43
2018-10-03T04:42:07.948Z,7.17
2018-10-03T04:44:36.402Z,6.33
2018-10-03T04:47:04.767Z,6.97
2018-10-03T04:49:33.398Z,7.33
2018-10-03T04:52:01.861Z,5.90
2018-10-03T04:54:30.286Z,7.33
2018-10-03T04:56:58.724Z,7.00
2018-10-03T04:59:27.075Z,6.90
2018-10-03T05:01:55.484Z,7.33
2018-10-03T05:04:23.900Z,7.10
2018-10-03T05:06:52.383Z,6.60
2018-10-03T05:09:24.656Z,7.20
2018-10-03T05:11:53.035Z,7.13
2018-10-03T05:14:21.865Z,6.50
2018-10-03T05:16:50.264Z,7.73
2018-10-03T05:19:18.673Z,6.47
2018-10-03T05:21:47.273Z,6.13
2018-10-03T05:24:15.838Z,6.20
2018-10-03T05:26:44.361Z,5.93
2018-10-03T05:29:12.780Z,6.30
2018-10-03T05:31:41.225Z,6.00
2018-10-03T05:34:09.599Z,6.93
2018-10-03T05:36:38.005Z,7.10
2018-10-03T05:39:08.827Z,6.27
2018-10-03T05:41:37.392Z,6.53
2018-10-03T05:44:05.952Z,6.13
2018-10-03T05:46:34.429Z,6.97
2018-10-03T05:49:02.905Z,8.00
2018-10-03T05:51:32.375Z,7.07
2018-10-03T05:54:00.864Z,6.50
2018-10-03T05:56:29.342Z,7.67
2018-10-03T05:58:57.818Z,8.67
2018-10-03T06:01:26.275Z,7.27
2018-10-03T06:03:54.715Z,8.53
2018-10-03T06:06:23.177Z,8.23
2018-10-03T06:08:51.688Z,7.40
2018-10-03T06:11:20.214Z,8.50
2018-10-03T06:13:48.721Z,6.70
2018-10-03T06:16:17.163Z,8.50
2018-10-03T06:18:45.731Z,8.10
2018-10-03T06:21:14.041Z,7.40
2018-10-03T06:23:42.508Z,7.13
2018-10-03T06:26:11.939Z,7.87
2018-10-03T06:28:40.372Z,7.50
2018-10-03T06:31:09.643Z,7.10
2018-10-03T06:33:39.006Z,6.57
2018-10-03T06:36:09.105Z,7.83
2018-10-03T06:38:37.620Z,7.17
2018-10-03T06:41:06.133Z,6.50
2018-10-03T06:43:34.700Z,6.73
2018-10-03T06:46:03.238Z,5.93
2018-10-03T06:48:31.705Z,7.23
2018-10-03T06:51:00.242Z,5.63
2018-10-03T06:53:28.683Z,5.70
2018-10-03T06:55:57.179Z,4.50
2018-10-03T06:58:25.655Z,5.00
2018-10-03T07:00:54.092Z,5.00
2018-10-03T07:03:23.641Z,4.90
2018-10-03T07:05:52.137Z,4.97
2018-10-03T07:08:21.527Z,6.23
2018-10-03T07:10:50.044Z,5.40
2018-10-03T07:13:18.498Z,6.43
2018-10-03T07:15:47.899Z,6.67
2018-10-03T07:18:16.445Z,6.20
2018-10-03T07:20:45.793Z,7.10
2018-10-03T07:23:14.592Z,6.70
2018-10-03T07:25:43.032Z,5.93
2018-10-03T07:28:11.370Z,6.43
2018-10-03T07:30:39.876Z,5.70
2018-10-03T07:33:08.371Z,6.43
2018-10-03T07:35:36.753Z,5.37
2018-10-03T07:38:05.136Z,6.00
2018-10-03T07:40:33.555Z,6.63
2018-10-03T07:43:01.882Z,6.20
2018-10-03T07:45:30.280Z,6.57
2018-10-03T07:47:58.676Z,5.73
2018-10-03T07:50:27.187Z,7.07
2018-10-03T07:52:55.607Z,5.70
2018-10-03T07:55:25.059Z,4.33
2018-10-03T07:57:53.725Z,4.77
2018-10-03T08:00:28.326Z,5.10
2018-10-03T08:02:57.056Z,4.23
2018-10-03T08:05:25.799Z,5.00
2018-10-03T08:07:55.379Z,4.57
2018-10-03T08:10:23.883Z,4.50
2018-10-03T08:12:53.324Z,4.70
2018-10-03T08:15:21.653Z,4.63
2018-10-03T08:17:50.073Z,4.90
2018-10-03T08:20:18.500Z,5.20
2018-10-03T08:22:47.872Z,4.40
2018-10-03T08:25:16.304Z,4.50
2018-10-03T08:27:44.740Z,3.90
2018-10-03T08:30:13.151Z,4.17
2018-10-03T08:32:41.589Z,4.10
2018-10-03T08:35:09.988Z,4.53
2018-10-03T08:37:38.454Z,3.90
2018-10-03T08:40:07.055Z,4.27
2018-10-03T08:42:35.476Z,5.10
2018-10-03T08:45:06.147Z,4.33
2018-10-03T08:47:34.544Z,4.80
2018-10-03T08:50:02.998Z,4.60
2018-10-03T08:52:31.440Z,5.53
2018-10-03T08:55:00.142Z,5.20
2018-10-03T08:57:28.595Z,3.60
2018-10-03T08:59:56.997Z,4.47
2018-10-03T09:02:25.423Z,3.50
2018-10-03T09:04:53.981Z,4.23
2018-10-03T09:07:22.394Z,3.70
2018-10-03T09:09:51.105Z,3.30
2018-10-03T09:12:19.584Z,4.13
2018-10-03T09:14:48.128Z,4.27
2018-10-03T09:17:16.636Z,4.20
2018-10-03T09:19:45.123Z,3.60
2018-10-03T09:22:14.666Z,3.80
2018-10-03T09:24:43.183Z,3.47
2018-10-03T09:27:11.733Z,4.17
2018-10-03T09:29:40.273Z,3.13
2018-10-03T09:32:08.712Z,3.00
2018-10-03T09:34:37.217Z,3.30
2018-10-03T09:37:05.663Z,3.97
2018-10-03T09:39:34.209Z,4.30
2018-10-03T09:42:02.764Z,3.50
2018-10-03T09:44:32.232Z,3.80
2018-10-03T09:47:00.614Z,2.93
2018-10-03T09:49:29.011Z,3.73
2018-10-03T09:51:57.421Z,3.80
2018-10-03T09:54:25.855Z,4.03
2018-10-03T09:56:54.684Z,4.07
2018-10-03T09:59:23.131Z,3.83
2018-10-03T10:01:55.295Z,3.73
2018-10-03T10:04:23.830Z,4.13
2018-10-03T10:06:52.225Z,3.40
2018-10-03T10:09:20.804Z,3.13
2018-10-03T10:11:49.215Z,4.03
2018-10-03T10:14:17.620Z,2.57
2018-10-03T10:16:46.028Z,4.23
2018-10-03T10:19:14.540Z,3.80
2018-10-03T10:21:42.974Z,2.70
2018-10-03T10:24:11.480Z,4.13
2018-10-03T10:26:39.935Z,4.07
2018-10-03T10:29:08.388Z,3.40
2018-10-03T10:31:37.899Z,3.27
2018-10-03T10:34:06.292Z,3.60
2018-10-03T10:36:34.732Z,3.30
2018-10-03T10:39:03.252Z,3.40
2018-10-03T10:41:31.917Z,3.17
2018-10-03T10:44:00.238Z,2.80
2018-10-03T10:46:28.730Z,3.53
2018-10-03T10:48:57.238Z,3.40
2018-10-03T10:51:25.721Z,3.33
2018-10-03T10:53:54.271Z,3.30
2018-10-03T10:56:22.672Z,4.10
2018-10-03T10:58:51.072Z,3.50
2018-10-03T11:01:19.504Z,3.47
2018-10-03T11:03:47.908Z,3.23
2018-10-03T11:06:16.376Z,2.90
2018-10-03T11:08:44.776Z,3.73
2018-10-03T11:11:13.205Z,2.80
2018-10-03T11:13:41.760Z,4.10
2018-10-03T11:16:10.171Z,3.33
2018-10-03T11:18:38.563Z,3.13
2018-10-03T11:21:07.067Z,3.20
2018-10-03T11:23:35.575Z,2.47
2018-10-03T11:26:04.896Z,4.17
2018-10-03T11:28:33.376Z,3.30
2018-10-03T11:31:01.809Z,3.60
2018-10-03T11:33:32.275Z,3.20
2018-10-03T11:36:00.704Z,3.43
2018-10-03T11:38:29.191Z,2.87
2018-10-03T11:40:57.724Z,3.30
2018-10-03T11:43:26.201Z,3.33
2018-10-03T11:45:54.693Z,3.50
2018-10-03T11:48:24.127Z,3.33
2018-10-03T11:50:52.616Z,3.20
2018-10-03T11:53:21.133Z,3.63
2018-10-03T11:55:49.696Z,2.70
2018-10-03T11:58:18.276Z,3.40
2018-10-03T12:00:47.868Z,3.43
2018-10-03T12:03:16.578Z,3.13
2018-10-03T12:05:44.951Z,3.33
2018-10-03T12:08:13.394Z,3.90
2018-10-03T12:10:41.873Z,3.30
2018-10-03T12:13:10.376Z,3.70
2018-10-03T12:15:40.825Z,4.40
2018-10-03T12:18:09.321Z,3.73
2018-10-03T12:20:37.815Z,2.90
2018-10-03T12:23:06.282Z,3.43
2018-10-03T12:25:34.796Z,3.40
2018-10-03T12:28:03.336Z,2.90
2018-10-03T12:30:31.728Z,3.27
2018-10-03T12:33:00.170Z,4.10
2018-10-03T12:35:34.024Z,3.57
2018-10-03T12:38:02.854Z,2.67
2018-10-03T12:40:31.843Z,4.10
2018-10-03T12:43:00.353Z,3.10
2018-10-03T12:45:30.088Z,3.73
2018-10-03T12:47:58.779Z,4.27
2018-10-03T12:50:27.762Z,3.27
2018-10-03T12:52:56.123Z,3.40
2018-10-03T12:55:24.595Z,3.53
2018-10-03T12:57:52.972Z,3.53
2018-10-03T13:00:21.483Z,4.60
2018-10-03T13:02:49.855Z,3.37
2018-10-03T13:05:18.232Z,3.03
2018-10-03T13:07:46.619Z,3.10
2018-10-03T13:10:14.998Z,3.60
2018-10-03T13:12:43.363Z,3.20
2018-10-03T13:15:11.788Z,3.00
2018-10-03T13:17:40.278Z,3.00
2018-10-03T13:20:08.952Z,2.77
2018-10-03T13:22:37.418Z,2.20
2018-10-03T13:25:05.908Z,3.37
2018-10-03T13:27:34.325Z,3.50
2018-10-03T13:30:02.737Z,2.73
2018-10-03T13:32:31.252Z,2.93
2018-10-03T13:34:59.687Z,3.57
2018-10-03T13:37:29.129Z,2.93
2018-10-03T13:39:57.582Z,2.83
2018-10-03T13:42:26.054Z,4.13
2018-10-03T13:44:54.447Z,3.33
2018-10-03T13:47:22.895Z,3.57
2018-10-03T13:49:51.343Z,3.03
2018-10-03T13:52:19.876Z,2.73
2018-10-03T13:54:48.353Z,3.00
2018-10-03T13:57:17.852Z,3.03
2018-10-03T13:59:46.305Z,4.00
2018-10-03T14:02:14.877Z,3.30
2018-10-03T14:04:43.400Z,3.10
2018-10-03T14:07:11.848Z,2.97
2018-10-03T14:09:40.272Z,2.77
2018-10-03T14:12:08.660Z,2.33
2018-10-03T14:14:37.078Z,2.23
2018-10-03T14:17:05.489Z,2.90
2018-10-03T14:19:33.828Z,3.30
2018-10-03T14:22:03.340Z,2.90
2018-10-03T14:24:31.863Z,3.00
2018-10-03T14:27:00.249Z,2.37
2018-10-03T14:29:28.684Z,3.40
2018-10-03T14:31:57.099Z,3.07
2018-10-03T14:34:25.567Z,2.07
2018-10-03T14:36:53.971Z,3.13
2018-10-03T14:39:22.497Z,2.70
2018-10-03T14:41:54.905Z,2.83
2018-10-03T14:44:23.346Z,3.33
2018-10-03T14:46:51.772Z,3.53
2018-10-03T14:49:20.237Z,3.03
2018-10-03T14:51:49.792Z,2.70
2018-10-03T14:54:18.248Z,2.63
2018-10-03T14:56:48.735Z,2.83
2018-10-03T14:59:18.042Z,2.90
2018-10-03T15:01:46.841Z,3.77
2018-10-03T15:04:16.316Z,3.23
2018-10-03T15:06:44.872Z,3.47
2018-10-03T15:09:19.875Z,2.83
2018-10-03T15:11:48.208Z,3.30
2018-10-03T15:14:16.595Z,2.60
2018-10-03T15:16:45.043Z,2.60
2018-10-03T15:19:13.463Z,2.80
2018-10-03T15:21:41.768Z,3.97
2018-10-03T15:24:10.285Z,3.23
2018-10-03T15:26:38.803Z,2.50
2018-10-03T15:29:07.296Z,2.47
2018-10-03T15:31:36.862Z,2.77
2018-10-03T15:34:05.502Z,2.60
2018-10-03T15:36:34.149Z,2.73
2018-10-03T15:39:02.621Z,2.10
2018-10-03T15:41:31.176Z,2.87
2018-10-03T15:43:59.628Z,2.77
2018-10-03T15:46:28.136Z,3.00
2018-10-03T15:48:56.599Z,3.23
2018-10-03T15:51:25.256Z,3.90
2018-10-03T15:53:53.758Z,2.73
2018-10-03T15:56:22.362Z,3.10
2018-10-03T15:58:50.948Z,2.73
2018-10-03T16:01:20.385Z,3.00
2018-10-03T16:03:48.864Z,3.03
2018-10-03T16:06:17.412Z,2.80
2018-10-03T16:08:45.819Z,2.77
2018-10-03T16:11:14.260Z,2.63
2018-10-03T16:13:42.655Z,2.20
2018-10-03T16:16:11.220Z,3.20
2018-10-03T16:18:39.784Z,2.60
2018-10-03T16:21:08.420Z,2.50
2018-10-03T16:23:36.923Z,2.27
2018-10-03T16:26:05.493Z,3.27
2018-10-03T16:28:34.092Z,2.90
2018-10-03T16:31:02.656Z,3.20
2018-10-03T16:33:31.296Z,2.90
2018-10-03T16:35:59.925Z,3.47
2018-10-03T16:38:28.684Z,3.30
2018-10-03T16:40:57.208Z,3.10
2018-10-03T16:43:25.799Z,4.33
2018-10-03T16:45:54.472Z,2.87
2018-10-03T16:48:23.000Z,2.90
2018-10-03T16:50:51.484Z,3.47
2018-10-03T16:53:19.926Z,3.10
2018-10-03T16:55:48.394Z,3.20
2018-10-03T16:58:17.041Z,2.97
2018-10-03T17:00:45.529Z,2.70
2018-10-03T17:03:14.090Z,3.30
2018-10-03T17:05:42.638Z,2.83
2018-10-03T17:08:11.118Z,3.33
2018-10-03T17:10:39.593Z,3.20
2018-10-03T17:13:08.388Z,3.40
2018-10-03T17:15:36.892Z,3.83
2018-10-03T17:18:05.540Z,3.50
2018-10-03T17:20:34.081Z,2.97
2018-10-03T17:23:03.150Z,3.23
2018-10-03T17:25:31.916Z,3.20
2018-10-03T17:28:00.317Z,2.70
2018-10-03T17:30:28.783Z,2.90
2018-10-03T17:32:57.329Z,4.00
2018-10-03T17:35:25.861Z,3.27
2018-10-03T17:37:54.374Z,3.27
2018-10-03T17:40:22.861Z,3.23
2018-10-03T17:42:51.319Z,3.20
2018-10-03T17:45:19.923Z,3.20
2018-10-03T17:50:19.904Z,3.33
2018-10-03T17:52:48.456Z,2.80
2018-10-03T17:55:17.007Z,3.00
2018-10-03T17:57:45.464Z,3.00
2018-10-03T18:00:14.048Z,3.27
2018-10-03T18:02:42.464Z,4.70
2018-10-03T18:05:10.953Z,3.40
2018-10-03T18:07:39.484Z,2.73
2018-10-03T18:10:07.969Z,3.30
2018-10-03T18:12:36.524Z,3.70
2018-10-03T18:15:05.245Z,3.93
2018-10-03T18:17:33.822Z,2.87
2018-10-03T18:20:02.368Z,3.50
2018-10-03T18:22:30.864Z,3.20
2018-10-03T18:24:59.361Z,3.27
2018-10-03T18:27:27.784Z,7.90
2018-10-03T18:29:57.310Z,3.83
2018-10-03T18:32:26.636Z,4.90
2018-10-03T18:34:55.963Z,3.23
2018-10-03T18:37:25.482Z,3.67
2018-10-03T18:39:54.835Z,3.07
2018-10-03T18:42:24.068Z,2.83
2018-10-03T18:44:53.267Z,3.33
2018-10-03T18:47:22.121Z,3.83
2018-10-03T18:49:52.074Z,3.23
2018-10-03T18:52:21.507Z,3.93
2018-10-03T18:54:51.072Z,3.67
2018-10-03T18:57:20.769Z,3.63
2018-10-03T18:59:51.443Z,3.40
2018-10-03T19:02:21.515Z,3.23
2018-10-03T19:04:52.537Z,3.37
2018-10-03T19:07:21.985Z,4.07
2018-10-03T19:09:53.372Z,3.70
2018-10-03T19:12:24.572Z,3.17
2018-10-03T19:14:54.983Z,3.17
2018-10-03T19:17:23.447Z,3.60
2018-10-03T19:19:51.964Z,3.67
2018-10-03T19:22:20.449Z,3.00
2018-10-03T19:24:48.977Z,3.70
2018-10-03T19:27:17.442Z,3.70
2018-10-03T19:29:45.893Z,4.00
2018-10-03T19:32:14.338Z,3.40
2018-10-03T19:34:42.840Z,4.87
2018-10-03T19:37:11.296Z,4.50
2018-10-03T19:39:39.756Z,4.07
2018-10-03T19:42:08.245Z,4.80
2018-10-03T19:44:37.358Z,3.80
2018-10-03T19:47:06.390Z,4.13
2018-10-03T19:49:35.297Z,4.17
2018-10-03T19:52:04.586Z,3.40
2018-10-03T19:54:33.795Z,4.50
2018-10-03T19:57:02.847Z,3.97
2018-10-03T19:59:31.998Z,3.60
2018-10-03T20:02:01.029Z,4.50
2018-10-03T20:04:30.337Z,4.20
2018-10-03T20:06:59.808Z,4.60
2018-10-03T20:09:28.965Z,4.27
2018-10-03T20:11:58.298Z,4.53
2018-10-03T20:14:28.078Z,5.87
2018-10-03T20:16:57.461Z,4.57
2018-10-03T20:19:26.676Z,4.33
2018-10-03T20:21:55.542Z,3.80
2018-10-03T20:24:25.725Z,4.33
2018-10-03T20:26:54.818Z,4.93
2018-10-03T20:29:24.248Z,4.50
2018-10-03T20:31:53.498Z,4.10
2018-10-03T20:34:22.681Z,5.23
2018-10-03T20:36:51.369Z,4.87
2018-10-03T20:39:19.880Z,4.63
2018-10-03T20:41:48.600Z,4.60
2018-10-03T20:44:17.145Z,4.87
2018-10-03T20:46:45.648Z,4.73
2018-10-03T20:49:14.248Z,4.57
2018-10-03T20:51:42.777Z,4.30
2018-10-03T20:54:11.306Z,4.83
2018-10-03T20:56:39.745Z,3.97
2018-10-03T20:59:08.208Z,4.70
2018-10-03T21:01:36.812Z,4.50
2018-10-03T21:04:05.291Z,6.20
2018-10-03T21:06:34.026Z,3.80
2018-10-03T21:09:02.742Z,4.57
2018-10-03T21:11:31.717Z,4.97
2018-10-03T21:14:00.190Z,4.63
2018-10-03T21:16:28.736Z,4.60
2018-10-03T21:18:57.269Z,4.33
2018-10-03T21:21:25.775Z,4.90
2018-10-03T21:23:54.304Z,4.60
2018-10-03T21:26:22.844Z,4.67
2018-10-03T21:28:51.401Z,4.80
2018-10-03T21:31:19.857Z,4.50
2018-10-03T21:33:48.448Z,5.63
2018-10-03T21:36:16.934Z,4.43
2018-10-03T21:38:45.416Z,5.07
2018-10-03T21:41:13.896Z,4.27
2018-10-03T21:43:42.464Z,4.30
2018-10-03T21:46:10.895Z,4.83
2018-10-03T21:48:42.214Z,3.90
2018-10-03T21:51:10.720Z,4.43
2018-10-03T21:53:40.525Z,4.17
2018-10-03T21:56:08.904Z,4.30
2018-10-03T21:58:37.564Z,3.97
2018-10-03T22:01:06.029Z,3.97
2018-10-03T22:03:34.453Z,4.80
2018-10-03T22:06:02.904Z,3.93
2018-10-03T22:08:31.385Z,4.07
2018-10-03T22:10:59.836Z,3.53
2018-10-03T22:13:28.245Z,3.77
2018-10-03T22:15:56.686Z,6.20
2018-10-03T22:18:25.160Z,4.53
2018-10-03T22:20:53.620Z,3.57
2018-10-03T22:23:22.152Z,5.37
2018-10-03T22:25:50.626Z,5.17
2018-10-03T22:28:19.056Z,4.20
2018-10-03T22:30:47.506Z,4.40
2018-10-03T22:33:15.912Z,4.40
2018-10-03T22:35:44.367Z,4.50
2018-10-03T22:38:12.805Z,4.40
2018-10-03T22:40:41.230Z,4.57
2018-10-03T22:43:09.708Z,5.20
2018-10-03T22:45:38.156Z,4.47
2018-10-03T22:48:06.668Z,4.50
2018-10-03T22:50:35.160Z,4.37
2018-10-03T22:53:03.656Z,3.80
2018-10-03T22:55:32.178Z,4.00
2018-10-03T22:58:00.603Z,4.40
2018-10-03T23:00:29.266Z,4.23
2018-10-03T23:02:57.781Z,4.63
2018-10-03T23:05:26.246Z,4.50
2018-10-03T23:07:54.665Z,4.70
2018-10-03T23:10:23.164Z,4.27
2018-10-03T23:12:51.616Z,4.50
2018-10-03T23:15:19.996Z,4.60
2018-10-03T23:17:48.469Z,4.40
2018-10-03T23:20:17.016Z,4.00
2018-10-03T23:22:45.497Z,4.53
2018-10-03T23:25:14.073Z,3.83
2018-10-03T23:27:42.533Z,4.43
2018-10-03T23:30:10.980Z,4.00
2018-10-03T23:32:39.420Z,5.03
2018-10-03T23:35:07.922Z,5.13
2018-10-03T23:37:36.424Z,3.80
2018-10-03T23:40:05.043Z,4.20
2018-10-03T23:42:33.586Z,5.07
2018-10-03T23:45:02.018Z,4.20
2018-10-03T23:47:30.464Z,5.70
2018-10-03T23:49:59.088Z,4.67
2018-10-03T23:52:27.562Z,4.60
2018-10-03T23:54:55.992Z,5.10
2018-10-03T23:57:24.546Z,4.87
2018-10-03T23:59:53.153Z,4.53
